Time;durP1;ratioP1;P1;durP2;ratioP2;P2;SDS_P1;SDS_P2;PMS_P1;PMS_P2;Temp;Humidity;BMP_temperature;BMP_pressure;BME280_temperature;BME280_humidity;BME280_pressure;Samples;Min_cycle;Max_cycle;Signal;HPM_P1;HPM_P2
2021/01/17 00:00:23;;;;;;;40.10;17.83;;;;;;;-2.44;65.74;98558.30;259628;1105;114761;-69
2021/01/17 00:05:41;;;;;;;30.57;14.75;;;;;;;-2.44;66.46;98561.75;259556;1105;115090;-68
2021/01/17 00:10:45;;;;;;;36.98;18.15;;;;;;;-2.41;66.73;98555.63;259445;1105;115200;-68
2021/01/17 00:15:47;;;;;;;31.67;14.97;;;;;;;-2.35;66.20;98559.86;259304;1105;115387;-68
2021/01/17 00:20:50;;;;;;;34.23;17.05;;;;;;;-2.31;67.13;98554.58;259640;1105;114824;-68
2021/01/17 00:25:52;;;;;;;39.53;18.37;;;;;;;-2.43;65.92;98578.23;259711;1105;115240;-69
2021/01/17 00:30:55;;;;;;;27.73;12.35;;;;;;;-2.44;66.58;98589.55;259657;1105;115019;-68
2021/01/17 00:35:57;;;;;;;35.20;15.75;;;;;;;-2.41;67.07;98592.97;259544;1105;115196;-68
2021/01/17 00:41:01;;;;;;;39.07;16.57;;;;;;;-2.32;66.41;98599.75;259495;1105;114891;-69
2021/01/17 00:46:04;;;;;;;39.48;18.35;;;;;;;-2.31;66.19;98601.48;259538;1105;114924;-69
2021/01/17 00:51:07;;;;;;;39.70;17.92;;;;;;;-2.28;66.41;98588.38;259657;1105;114481;-68
2021/01/17 00:56:09;;;;;;;34.20;15.08;;;;;;;-2.27;65.94;98594.47;259561;1105;115911;-68
2021/01/17 01:01:11;;;;;;;36.50;15.65;;;;;;;-2.29;66.85;98594.48;259590;1105;115310;-68
2021/01/17 01:06:19;;;;;;;33.45;15.32;;;;;;;-2.19;66.73;98600.39;259688;1105;115120;-68
2021/01/17 01:11:22;;;;;;;28.42;12.65;;;;;;;-2.12;67.24;98606.36;259501;1105;114816;-68
2021/01/17 01:16:24;;;;;;;23.95;11.15;;;;;;;-2.03;66.46;98608.81;259588;1106;114897;-68
2021/01/17 01:21:28;;;;;;;24.17;11.90;;;;;;;-1.93;66.45;98611.21;259558;1105;114826;-69
2021/01/17 01:26:39;;;;;;;15.55;8.20;;;;;;;-1.85;66.93;98611.06;259492;1105;115161;-69
2021/01/17 01:31:42;;;;;;;16.20;6.55;;;;;;;-1.79;66.93;98616.16;259503;1105;114684;-69
2021/01/17 01:36:49;;;;;;;13.37;5.93;;;;;;;-1.76;66.29;98626.54;259672;1105;115420;-68
2021/01/17 01:41:54;;;;;;;11.00;5.42;;;;;;;-1.76;65.87;98636.11;259666;1105;114741;-69
2021/01/17 01:46:59;;;;;;;10.57;5.80;;;;;;;-1.76;65.24;98630.90;259582;1105;114808;-70
2021/01/17 01:52:04;;;;;;;9.85;5.60;;;;;;;-1.77;65.44;98642.20;259499;1105;115387;-70
2021/01/17 01:57:09;;;;;;;10.80;6.03;;;;;;;-1.81;65.32;98643.15;259442;1105;114456;-70
2021/01/17 02:02:15;;;;;;;11.65;6.33;;;;;;;-1.85;64.95;98639.74;259617;1105;114667;-70
2021/01/17 02:07:47;;;;;;;13.58;7.03;;;;;;;-1.89;65.70;98655.48;259424;1105;114964;-69
2021/01/17 02:13:02;;;;;;;14.83;7.17;;;;;;;-1.94;65.71;98671.19;258859;1105;114658;-70
2021/01/17 02:18:15;;;;;;;16.77;7.25;;;;;;;-2.02;64.77;98686.98;259465;1106;205788;-70
2021/01/17 02:24:12;;;;;;;14.87;8.00;;;;;;;-2.09;64.86;98687.97;259531;1105;114783;-70
2021/01/17 02:29:27;;;;;;;17.62;8.53;;;;;;;-2.26;63.92;98692.61;259470;1108;114392;-69
2021/01/17 02:34:34;;;;;;;19.07;8.73;;;;;;;-2.40;64.23;98693.68;258674;1105;114573;-69
2021/01/17 02:40:00;;;;;;;17.67;8.93;;;;;;;-2.51;64.11;98699.95;259424;1105;114736;-69
2021/01/17 02:45:05;;;;;;;16.55;8.53;;;;;;;-2.64;62.93;98707.94;259654;1105;114526;-70
2021/01/17 02:50:16;;;;;;;17.62;8.53;;;;;;;-2.74;62.91;98711.55;259661;1105;115043;-70
2021/01/17 02:55:36;;;;;;;18.95;8.40;;;;;;;-2.89;62.99;98714.34;259472;1106;115269;-69
2021/01/17 03:00:48;;;;;;;18.32;8.10;;;;;;;-3.01;62.49;98711.92;259628;1105;114797;-69
2021/01/17 03:05:52;;;;;;;15.88;8.18;;;;;;;-3.12;62.01;98727.69;259582;1105;114658;-69
2021/01/17 03:10:55;;;;;;;20.00;8.48;;;;;;;-3.24;61.58;98728.67;259446;1105;115320;-69
2021/01/17 03:16:04;;;;;;;18.52;8.15;;;;;;;-3.43;62.16;98734.95;259523;1106;114665;-70
2021/01/17 03:21:07;;;;;;;14.83;7.75;;;;;;;-3.59;61.66;98749.88;259636;1105;114668;-70
2021/01/17 03:26:19;;;;;;;14.53;8.00;;;;;;;-3.72;61.75;98759.52;259427;1106;114833;-70
2021/01/17 03:31:24;;;;;;;;;;;;;;;-3.84;61.82;98765.72;259747;1105;115182;-69
2021/01/17 03:36:31;;;;;;;16.52;7.47;;;;;;;-3.93;61.70;98772.72;259746;1105;102251;-69
2021/01/17 03:41:43;;;;;;;10.30;6.15;;;;;;;-4.03;61.69;98771.07;259412;1105;115211;-70
2021/01/17 03:46:49;;;;;;;14.33;6.35;;;;;;;-4.19;60.95;98778.11;259250;1105;114634;-71
2021/01/17 03:51:52;;;;;;;11.38;5.72;;;;;;;-4.37;60.73;98787.75;259679;1105;117240;-69
2021/01/17 03:56:54;;;;;;;16.52;6.97;;;;;;;-4.48;60.68;98792.16;259414;1105;115588;-70
2021/01/17 04:01:57;;;;;;;16.62;6.75;;;;;;;-4.62;60.27;98793.94;259603;1105;115287;-66
2021/01/17 04:06:59;;;;;;;13.43;6.53;;;;;;;-4.82;59.99;98802.71;259662;1106;114546;-69
2021/01/17 04:12:01;;;;;;;15.03;6.53;;;;;;;-4.96;60.28;98803.61;259665;1105;114723;-67
2021/01/17 04:17:04;;;;;;;13.05;6.20;;;;;;;-5.12;59.92;98814.06;259725;1105;114628;-66
2021/01/17 04:22:06;;;;;;;13.60;7.05;;;;;;;-5.22;59.86;98820.14;259659;1105;114716;-66
2021/01/17 04:27:08;;;;;;;12.90;6.67;;;;;;;-5.32;59.72;98821.89;259722;1106;115285;-66
2021/01/17 04:32:10;;;;;;;17.42;7.60;;;;;;;-5.37;60.79;98818.42;259728;1105;114840;-66
2021/01/17 04:37:13;;;;;;;18.42;7.90;;;;;;;-5.45;60.43;98829.69;259482;1106;114943;-67
2021/01/17 04:42:20;;;;;;;16.02;7.40;;;;;;;-5.56;59.94;98838.34;259529;1106;115236;-66
2021/01/17 04:47:22;;;;;;;15.20;7.20;;;;;;;-5.67;60.61;98847.86;259703;1105;114675;-67
2021/01/17 04:52:28;;;;;;;18.75;8.38;;;;;;;-5.67;60.27;98857.34;259565;1105;114774;-66
2021/01/17 04:58:04;;;;;;;21.15;8.58;;;;;;;-5.69;60.24;98862.54;259647;1105;114520;-66
2021/01/17 05:03:14;;;;;;;19.00;8.53;;;;;;;-5.74;59.67;98874.61;259576;1105;114738;-66
2021/01/17 05:08:34;;;;;;;20.70;8.58;;;;;;;-5.87;59.76;98875.50;259563;1105;118772;-66
2021/01/17 05:13:47;;;;;;;16.17;7.97;;;;;;;-5.91;59.14;98887.55;259538;1105;115020;-66
2021/01/17 05:18:52;;;;;;;17.80;8.65;;;;;;;-6.05;59.67;98897.92;259588;1105;115096;-66
2021/01/17 05:24:00;;;;;;;20.05;8.48;;;;;;;-6.15;59.73;98900.50;259576;1105;114555;-67
2021/01/17 05:29:03;;;;;;;20.90;9.53;;;;;;;-6.17;59.96;98908.28;259468;1105;114898;-67
2021/01/17 05:34:08;;;;;;;23.22;9.95;;;;;;;-6.14;60.10;98916.06;259599;1106;114831;-65
2021/01/17 05:39:11;;;;;;;21.23;9.85;;;;;;;-6.13;59.98;98922.95;259307;1105;114722;-65
2021/01/17 05:44:13;;;;;;;18.12;9.05;;;;;;;-6.03;60.83;98922.12;259641;1106;114843;-65
2021/01/17 05:49:15;;;;;;;22.70;10.08;;;;;;;-5.96;60.89;98941.13;259649;1105;115134;-65
2021/01/17 05:54:24;;;;;;;21.40;10.08;;;;;;;-5.93;60.85;98938.55;259471;1105;114714;-69
2021/01/17 05:59:38;;;;;;;24.10;12.03;;;;;;;-5.84;60.63;98938.55;259504;1105;115261;-69
2021/01/17 06:04:43;;;;;;;21.05;10.55;;;;;;;-5.79;60.59;98938.55;259591;1105;114798;-66
2021/01/17 06:09:45;;;;;;;24.00;11.63;;;;;;;-5.82;60.49;98946.31;259396;1105;115769;-66
2021/01/17 06:14:47;;;;;;;24.73;11.97;;;;;;;-5.89;59.73;98952.34;259361;1105;114760;-66
2021/01/17 06:19:54;;;;;;;29.77;12.50;;;;;;;-5.90;60.60;98958.39;259594;1105;115066;-66
2021/01/17 06:25:04;;;;;;;29.35;12.07;;;;;;;-5.91;60.03;98961.82;258839;1105;114958;-65
2021/01/17 06:30:18;;;;;;;22.70;11.93;;;;;;;-5.89;60.47;98967.89;259606;1105;114948;-65
2021/01/17 06:35:32;;;;;;;25.57;12.77;;;;;;;-5.92;60.60;98978.27;259396;1105;115032;-64
2021/01/17 06:40:34;;;;;;;28.90;14.00;;;;;;;-5.93;60.95;98990.36;259479;1105;115133;-65
2021/01/17 06:45:46;;;;;;;32.77;14.40;;;;;;;-5.81;60.91;98987.79;259659;1105;115554;-64
2021/01/17 06:50:49;;;;;;;24.80;12.87;;;;;;;-5.77;60.33;98996.44;259506;1105;115509;-72
2021/01/17 06:56:15;;;;;;;29.40;13.35;;;;;;;-5.73;60.98;99011.13;259543;1105;115015;-65
2021/01/17 07:01:28;;;;;;;;;;;;;;;-5.62;60.91;99019.78;259637;1105;115008;-68
2021/01/17 07:07:08;;;;;;;29.82;13.25;;;;;;;-5.58;61.01;99015.47;259642;1105;102925;-68
2021/01/17 07:13:02;;;;;;;31.82;14.87;;;;;;;-5.54;61.16;99036.20;259412;1105;116671;-72
2021/01/17 07:18:12;;;;;;;30.95;14.50;;;;;;;-5.55;60.76;99042.25;259423;1108;115060;-69
2021/01/17 07:23:18;;;;;;;32.60;14.30;;;;;;;-5.49;61.41;99044.01;259515;1105;115002;-68
2021/01/17 07:28:21;;;;;;;;;;;;;;;-5.41;60.66;99060.44;259616;1105;115279;-66
2021/01/17 07:33:29;;;;;;;29.07;13.13;;;;;;;-5.37;60.72;99063.90;259589;1105;102569;-66
2021/01/17 07:38:34;;;;;;;32.08;14.73;;;;;;;-5.34;60.70;99071.69;259387;1105;116223;-65
2021/01/17 07:43:38;;;;;;;37.23;16.32;;;;;;;-5.33;60.71;99071.71;259438;1105;115034;-64
2021/01/17 07:48:46;;;;;;;35.83;16.55;;;;;;;-5.31;60.47;99082.07;259619;1105;115364;-66
2021/01/17 07:53:55;;;;;;;;;;;;;;;-5.30;60.69;99079.50;259725;1106;115152;-66
2021/01/17 07:58:59;;;;;;;34.48;15.50;;;;;;;-5.28;60.37;99084.67;259468;1106;102537;-64
2021/01/17 08:04:02;;;;;;;35.68;16.35;;;;;;;-5.24;60.71;99086.41;259552;1105;115051;-64
2021/01/17 08:09:08;;;;;;;39.05;16.95;;;;;;;-5.18;60.58;99083.83;259506;1105;115009;-66
2021/01/17 08:14:20;;;;;;;37.08;16.00;;;;;;;-5.11;60.67;99085.56;259642;1105;114978;-64
2021/01/17 08:19:36;;;;;;;34.90;16.07;;;;;;;-5.03;60.71;99089.05;259583;1106;114809;-65
2021/01/17 08:24:39;;;;;;;36.88;16.55;;;;;;;-4.94;60.49;99095.11;259600;1105;114782;-63
2021/01/17 08:30:03;;;;;;;35.73;16.27;;;;;;;-4.92;60.65;99094.25;259696;1105;115102;-63
2021/01/17 08:35:20;;;;;;;39.40;17.23;;;;;;;-4.89;60.06;99107.23;259446;1105;114921;-65
2021/01/17 08:40:29;;;;;;;39.53;17.10;;;;;;;-4.92;59.85;99108.95;259633;1105;114661;-63
2021/01/17 08:45:34;;;;;;;46.00;19.70;;;;;;;-4.91;60.51;99119.33;259662;1105;115280;-64
2021/01/17 08:50:38;;;;;;;47.13;19.87;;;;;;;-4.88;59.63;99131.45;259571;1105;115250;-64
2021/01/17 08:55:45;;;;;;;47.17;20.92;;;;;;;-4.84;59.82;99148.75;259563;1105;115728;-63
2021/01/17 09:00:52;;;;;;;44.75;20.55;;;;;;;-4.77;59.72;99159.13;259271;1105;115318;-64
2021/01/17 09:05:56;;;;;;;42.40;20.00;;;;;;;-4.68;59.40;99157.43;259477;1106;115134;-66
2021/01/17 09:11:00;;;;;;;42.30;20.27;;;;;;;-4.60;59.82;99163.48;259648;1105;114870;-67
2021/01/17 09:16:09;;;;;;;40.15;19.90;;;;;;;-4.53;59.35;99165.22;259256;1105;115993;-66
2021/01/17 09:21:12;;;;;;;44.53;20.43;;;;;;;-4.55;59.41;99170.42;259369;1105;115436;-66
2021/01/17 09:26:17;;;;;;;47.83;21.67;;;;;;;-4.52;59.15;99182.52;259242;1105;116143;-67
2021/01/17 09:31:24;;;;;;;45.75;21.62;;;;;;;-4.54;59.37;99179.94;259239;1105;115186;-66
2021/01/17 09:36:26;;;;;;;39.90;19.77;;;;;;;-4.53;59.21;99188.59;259362;1106;115636;-64
2021/01/17 09:41:30;;;;;;;45.47;20.10;;;;;;;-4.38;59.68;99193.80;259429;1105;114913;-64
2021/01/17 09:46:33;;;;;;;51.83;20.67;;;;;;;-4.27;59.18;99195.53;259413;1106;115150;-67
2021/01/17 09:51:45;;;;;;;45.07;19.33;;;;;;;-4.15;59.42;99195.52;259516;1105;115408;-68
2021/01/17 09:56:47;;;;;;;47.00;21.40;;;;;;;-3.83;59.73;99200.69;259539;1106;115141;-65
2021/01/17 10:01:51;;;;;;;47.35;22.37;;;;;;;-3.85;59.13;99199.81;259579;1105;115484;-66
2021/01/17 10:06:56;;;;;;;51.90;23.50;;;;;;;-3.90;58.89;99205.03;259394;1105;115255;-65
2021/01/17 10:12:02;;;;;;;51.88;23.45;;;;;;;-3.90;58.93;99217.17;259311;1106;114966;-65
2021/01/17 10:17:07;;;;;;;53.43;24.37;;;;;;;-3.96;58.48;99201.58;259408;1105;115305;-68
2021/01/17 10:22:12;;;;;;;49.87;22.83;;;;;;;-4.01;58.75;99217.16;259292;1105;114982;-65
2021/01/17 10:27:17;;;;;;;50.28;24.30;;;;;;;-4.04;58.11;99219.78;259309;1105;115092;-67
2021/01/17 10:32:28;;;;;;;49.43;22.57;;;;;;;-4.02;58.68;99211.97;259132;1105;115567;-65
2021/01/17 10:43:35;;;;;;;51.68;24.12;;;;;;;-4.07;58.69;99225.84;259591;1105;115653;-66
2021/01/17 10:49:01;;;;;;;52.50;24.70;;;;;;;-4.14;58.07;99231.05;259566;1105;115507;-67
2021/01/17 10:54:06;;;;;;;53.15;25.37;;;;;;;-4.12;58.58;99227.56;259440;1105;115033;-66
2021/01/17 10:59:09;;;;;;;;;;;;;;;-3.98;59.32;99242.28;259433;1105;115098;-67
2021/01/17 11:04:36;;;;;;;53.43;23.03;;;;;;;-3.99;58.85;99241.42;257324;1105;104443;-67
2021/01/17 11:09:56;;;;;;;57.03;25.92;;;;;;;-4.04;58.47;99253.57;257523;1106;115699;-68
2021/01/17 11:15:24;;;;;;;51.70;25.17;;;;;;;-4.10;58.85;99238.83;256293;1105;115629;-68
2021/01/17 11:20:39;;;;;;;54.30;24.80;;;;;;;-4.15;58.85;99243.14;259297;1105;115128;-69
2021/01/17 11:26:09;;;;;;;54.80;23.65;;;;;;;-4.18;59.35;99243.14;259445;1105;115055;-67
2021/01/17 11:31:47;;;;;;;55.83;24.43;;;;;;;-4.24;58.62;99232.77;259490;1106;115692;-68
2021/01/17 11:37:00;;;;;;;52.25;24.02;;;;;;;-4.22;59.07;99232.77;259481;1105;114781;-69
2021/01/17 11:42:40;;;;;;;49.08;23.98;;;;;;;-4.20;58.77;99236.23;259329;1105;115208;-70
2021/01/17 11:48:03;;;;;;;45.75;23.30;;;;;;;-4.19;58.91;99231.03;259429;1105;115231;-66
2021/01/17 11:53:12;;;;;;;51.23;24.33;;;;;;;-4.20;58.88;99223.25;259298;1105;115037;-72
2021/01/17 11:58:37;;;;;;;;;;;;;;;;;;;;;
2021/01/17 12:04:15;;;;;;;;;;;;;;;;;;;;;
2021/01/17 12:09:18;;;;;;;47.70;21.60;;;;;;;-4.15;58.27;99232.75;259205;1105;115040;-71
2021/01/17 12:14:35;;;;;;;;;;;;;;;;;;;;;
2021/01/17 12:19:57;;;;;;;44.53;21.80;;;;;;;-4.10;58.38;99237.97;259161;1108;115494;-72
2021/01/17 12:25:16;;;;;;;52.07;24.17;;;;;;;-4.10;58.63;99233.64;257562;1105;115797;-75
2021/01/17 12:30:45;;;;;;;;;;;;;;;;;;;;;
2021/01/17 12:36:22;;;;;;;47.73;23.27;;;;;;;-4.03;58.47;99244.03;259000;1108;115141;-73
2021/01/17 12:41:55;;;;;;;53.17;24.43;;;;;;;-4.06;58.29;99247.49;258981;1108;115464;-70
2021/01/17 12:47:21;;;;;;;52.97;25.43;;;;;;;-4.06;58.33;99256.16;259589;1105;115773;-62
2021/01/17 12:52:23;;;;;;;53.10;24.90;;;;;;;-4.06;57.96;99260.48;259518;1106;115027;-63
2021/01/17 12:57:25;;;;;;;52.30;25.02;;;;;;;-4.07;58.67;99262.22;259626;1106;116290;-63
2021/01/17 13:02:27;;;;;;;53.10;24.07;;;;;;;-4.10;58.01;99272.61;259531;1105;114970;-63
2021/01/17 13:07:30;;;;;;;55.40;24.40;;;;;;;-4.14;57.96;99278.68;258859;1105;116540;-63
2021/01/17 13:12:32;;;;;;;50.73;24.03;;;;;;;-4.16;57.69;99288.20;259535;1105;115020;-63
2021/01/17 13:17:34;;;;;;;51.20;23.67;;;;;;;-4.16;57.83;99292.53;259609;1105;115036;-63
2021/01/17 13:22:37;;;;;;;52.95;25.45;;;;;;;-4.16;58.06;99295.13;259589;1105;114936;-62
2021/01/17 13:27:39;;;;;;;56.77;23.47;;;;;;;-4.15;57.89;99292.52;259390;1106;115556;-62
2021/01/17 13:32:42;;;;;;;52.25;23.27;;;;;;;-4.13;57.77;99298.59;259385;1105;115140;-62
2021/01/17 13:37:45;;;;;;;54.60;23.73;;;;;;;-4.09;57.62;99297.73;259533;1105;114739;-62
2021/01/17 13:42:47;;;;;;;52.43;23.50;;;;;;;-4.15;57.42;99305.50;259421;1106;115065;-62
2021/01/17 13:47:49;;;;;;;58.10;26.43;;;;;;;-4.21;57.64;99312.42;259344;1105;115105;-62
2021/01/17 13:52:52;;;;;;;59.45;26.33;;;;;;;-4.26;57.67;99315.03;259589;1105;115242;-62
2021/01/17 13:57:54;;;;;;;64.17;27.58;;;;;;;-4.27;57.87;99318.50;259571;1105;115788;-63
2021/01/17 14:02:56;;;;;;;57.10;27.87;;;;;;;-4.33;57.65;99321.08;259651;1105;115025;-63
2021/01/17 14:07:59;;;;;;;64.75;28.32;;;;;;;-4.36;57.63;99324.53;259487;1106;116231;-62
2021/01/17 14:13:02;;;;;;;58.98;26.42;;;;;;;-4.40;57.10;99327.12;259482;1105;115078;-63
2021/01/17 14:18:04;;;;;;;61.95;27.82;;;;;;;-4.47;57.80;99343.55;259614;1105;114962;-61
2021/01/17 14:23:06;;;;;;;58.05;26.75;;;;;;;-4.50;57.65;99351.33;259547;1105;115246;-61
2021/01/17 14:28:09;;;;;;;61.57;28.77;;;;;;;-4.49;57.65;99350.46;259535;1106;115547;-61
2021/01/17 14:33:11;;;;;;;59.83;27.50;;;;;;;-4.50;57.48;99348.73;259553;1105;114951;-62
2021/01/17 14:38:14;;;;;;;64.35;28.40;;;;;;;-4.49;57.62;99350.46;259587;1105;115279;-68
2021/01/17 14:43:21;;;;;;;62.35;28.65;;;;;;;-4.53;57.66;99353.05;259463;1105;115209;-67
2021/01/17 14:48:23;;;;;;;65.87;29.87;;;;;;;-4.53;57.78;99360.84;259238;1105;115152;-67
2021/01/17 14:53:25;;;;;;;69.63;28.47;;;;;;;-4.53;57.56;99354.78;259479;1106;115112;-66
2021/01/17 14:58:28;;;;;;;67.33;29.53;;;;;;;-4.58;57.54;99357.37;259329;1105;114962;-66
2021/01/17 15:03:33;;;;;;;69.80;29.75;;;;;;;-4.63;57.48;99358.20;259424;1105;115629;-65
2021/01/17 15:08:39;;;;;;;70.90;29.48;;;;;;;-4.69;57.12;99360.77;259343;1105;115819;-69
2021/01/17 15:13:53;;;;;;;69.12;30.55;;;;;;;-4.75;57.41;99374.61;259575;1105;115175;-69
2021/01/17 15:19:03;;;;;;;70.50;28.57;;;;;;;-4.81;57.67;99382.36;259568;1105;114858;-69
2021/01/17 15:24:31;;;;;;;69.40;28.42;;;;;;;-4.84;57.10;99379.74;259355;1105;115160;-68
2021/01/17 15:29:36;;;;;;;69.45;28.70;;;;;;;-4.89;57.35;99384.02;259156;1105;114904;-69
2021/01/17 15:34:58;;;;;;;;;;;;;;;-4.93;57.27;99398.71;258962;1109;114972;-71
2021/01/17 15:40:31;;;;;;;68.33;28.32;;;;;;;-5.00;57.81;99400.41;259229;1106;102253;-68
2021/01/17 15:45:35;;;;;;;66.87;29.23;;;;;;;-5.05;57.61;99407.31;259240;1105;115644;-67
2021/01/17 15:50:38;;;;;;;64.62;27.07;;;;;;;-5.09;57.44;99405.56;259275;1105;115055;-66
2021/01/17 15:55:40;;;;;;;71.35;29.57;;;;;;;-5.12;57.97;99402.94;259468;1105;115017;-69
2021/01/17 16:00:42;;;;;;;62.33;28.37;;;;;;;-5.18;57.28;99410.67;259023;1105;115338;-68
2021/01/17 16:05:45;;;;;;;66.17;27.15;;;;;;;-5.22;56.96;99421.03;259199;1105;114953;-67
2021/01/17 16:10:47;;;;;;;69.77;27.50;;;;;;;-5.27;57.19;99420.97;259366;1105;115167;-66
2021/01/17 16:15:52;;;;;;;63.90;27.65;;;;;;;-5.32;56.94;99430.45;259221;1108;115153;-67
2021/01/17 16:20:56;;;;;;;68.62;27.87;;;;;;;-5.33;57.32;99431.29;259511;1106;115199;-66
2021/01/17 16:25:59;;;;;;;64.93;26.97;;;;;;;-5.37;57.33;99442.50;259340;1105;115775;-67
2021/01/17 16:31:02;;;;;;;65.92;28.00;;;;;;;-5.45;57.24;99449.36;259359;1106;115839;-65
2021/01/17 16:36:05;;;;;;;67.27;27.73;;;;;;;-5.53;57.85;99452.76;259554;1105;115006;-66
2021/01/17 16:41:08;;;;;;;68.43;28.13;;;;;;;-5.57;57.07;99457.88;259384;1105;115040;-67
2021/01/17 16:46:12;;;;;;;73.45;29.87;;;;;;;-5.57;57.30;99481.21;259376;1105;114990;-64
2021/01/17 16:51:15;;;;;;;82.02;31.42;;;;;;;-5.57;57.86;99481.21;259472;1106;115245;-67
2021/01/17 16:56:17;;;;;;;76.90;31.45;;;;;;;-5.56;57.68;99482.97;259472;1105;115288;-66
2021/01/17 17:01:19;;;;;;;74.53;29.85;;;;;;;-5.58;57.61;99484.67;259573;1105;114717;-65
2021/01/17 17:06:24;;;;;;;67.10;29.83;;;;;;;-5.15;60.37;99483.34;259296;1105;115284;-70
2021/01/17 17:11:31;;;;;;;69.07;27.67;;;;;;;-5.10;58.02;99488.55;259292;1106;115121;-70
2021/01/17 17:16:57;;;;;;;60.50;26.07;;;;;;;-5.24;56.83;99489.30;259064;1109;116275;-71
2021/01/17 17:22:05;;;;;;;57.67;26.45;;;;;;;-5.33;56.90;99498.72;259215;1105;115212;-72
2021/01/17 17:27:19;;;;;;;65.47;27.33;;;;;;;-5.46;56.47;99502.95;259252;1105;115130;-69
2021/01/17 17:32:28;;;;;;;59.03;26.33;;;;;;;-5.56;57.22;99503.72;259356;1105;115902;-68
2021/01/17 17:37:36;;;;;;;61.70;27.17;;;;;;;-5.60;56.92;99507.14;259395;1105;114983;-68
2021/01/17 17:42:38;;;;;;;65.22;28.07;;;;;;;-5.61;57.39;99511.42;259302;1105;115399;-66
2021/01/17 17:47:45;;;;;;;64.80;27.20;;;;;;;-5.65;57.22;99514.84;259505;1105;115114;-65
2021/01/17 17:52:48;;;;;;;65.87;28.30;;;;;;;-5.67;57.37;99528.63;259353;1105;115050;-64
2021/01/17 17:57:54;;;;;;;65.30;27.93;;;;;;;-5.70;57.02;99529.49;259517;1105;114901;-65
2021/01/17 18:02:58;;;;;;;69.85;28.02;;;;;;;-5.76;56.98;99535.47;259285;1105;115244;-64
2021/01/17 18:08:02;;;;;;;65.15;26.17;;;;;;;-5.80;56.83;99538.88;259363;1105;115130;-66
2021/01/17 18:13:06;;;;;;;64.20;26.65;;;;;;;-5.86;57.15;99549.17;259432;1105;115774;-69
2021/01/17 18:18:09;;;;;;;58.13;26.52;;;;;;;-5.86;57.53;99535.34;259230;1105;114879;-67
2021/01/17 18:23:22;;;;;;;;;;;;;;;;;;;;;
2021/01/17 18:28:43;;;;;;;44.05;21.02;;;;;;;-6.02;56.87;99511.00;258045;1105;116332;-66
2021/01/17 18:33:46;;;;;;;58.30;26.23;;;;;;;-6.14;55.71;99511.73;259281;1105;115183;-67
2021/01/17 18:38:57;;;;;;;62.60;25.12;;;;;;;-6.12;57.08;99514.33;259348;1105;115030;-67
2021/01/17 18:43:59;;;;;;;58.80;26.13;;;;;;;-6.10;55.73;99510.91;259318;1105;115566;-64
2021/01/17 18:49:01;;;;;;;61.20;26.17;;;;;;;-6.09;55.54;99519.55;259528;1105;115041;-66
2021/01/17 18:54:04;;;;;;;61.25;24.80;;;;;;;-6.11;56.53;99510.88;259448;1105;114919;-66
2021/01/17 18:59:06;;;;;;;65.47;27.20;;;;;;;-6.16;56.37;99521.20;259408;1106;115160;-67
2021/01/17 19:04:08;;;;;;;66.57;27.17;;;;;;;-6.16;56.32;99521.20;259376;1106;115040;-63
2021/01/17 19:09:10;;;;;;;70.17;28.60;;;;;;;-6.19;55.78;99534.10;259470;1105;114877;-66
2021/01/17 19:14:13;;;;;;;72.80;27.85;;;;;;;-6.23;56.46;99540.96;259374;1105;115126;-64
2021/01/17 19:19:15;;;;;;;60.35;27.60;;;;;;;-6.27;55.73;99546.09;259351;1106;115369;-65
2021/01/17 19:24:17;;;;;;;67.70;29.23;;;;;;;-6.27;57.01;99543.50;259312;1105;115703;-65
2021/01/17 19:29:31;;;;;;;73.65;29.15;;;;;;;-6.28;56.14;99565.94;259154;1105;115087;-70
2021/01/17 19:34:49;;;;;;;65.43;27.73;;;;;;;-6.29;56.70;99564.18;259395;1105;115231;-73
2021/01/17 19:40:25;;;;;;;64.30;28.00;;;;;;;-6.30;56.73;99574.53;259479;1106;115016;-62
2021/01/17 19:45:28;;;;;;;54.13;25.50;;;;;;;-6.29;56.68;99566.77;259530;1105;115142;-61
2021/01/17 19:50:31;;;;;;;66.47;28.27;;;;;;;-6.30;56.92;99557.27;259472;1105;115162;-61
2021/01/17 19:55:34;;;;;;;55.78;25.62;;;;;;;-6.32;56.33;99563.27;259471;1106;115867;-62
2021/01/17 20:00:37;;;;;;;63.73;26.30;;;;;;;-6.25;56.28;99557.32;259534;1105;115156;-65
2021/01/17 20:05:41;;;;;;;68.57;25.52;;;;;;;-6.25;56.09;99554.73;259579;1105;116347;-67
2021/01/17 20:10:44;;;;;;;63.75;26.50;;;;;;;-6.31;55.80;99560.72;259507;1105;115270;-67
2021/01/17 20:15:46;;;;;;;68.02;27.52;;;;;;;-6.28;56.56;99553.00;259501;1105;114955;-68
2021/01/17 20:20:49;;;;;;;62.90;28.55;;;;;;;-6.31;56.04;99562.44;259441;1106;114939;-69
2021/01/17 20:25:51;;;;;;;76.43;29.80;;;;;;;-6.35;55.91;99563.22;259637;1105;115241;-68
2021/01/17 20:30:53;;;;;;;79.07;32.38;;;;;;;-6.37;55.53;99581.34;259634;1106;114862;-67
2021/01/17 20:35:56;;;;;;;75.50;32.45;;;;;;;-6.37;56.45;99583.93;259454;1106;115228;-65
2021/01/17 20:40:59;;;;;;;81.55;34.00;;;;;;;-6.36;56.39;99577.03;259625;1105;114954;-65
2021/01/17 20:46:01;;;;;;;85.32;36.73;;;;;;;-6.35;57.21;99581.34;259535;1105;115564;-65
2021/01/17 20:51:05;;;;;;;87.90;36.93;;;;;;;-6.32;56.37;99577.08;259503;1105;115461;-66
2021/01/17 20:56:09;;;;;;;;;;;;;;;-6.30;55.76;99582.30;259520;1105;115105;-64
2021/01/17 21:01:15;;;;;;;93.30;38.17;;;;;;;-6.31;56.03;99596.11;259760;1105;102074;-64
2021/01/17 21:06:19;;;;;;;95.53;37.47;;;;;;;-6.32;55.89;99594.34;259388;1105;115295;-64
2021/01/17 21:11:22;;;;;;;92.67;38.38;;;;;;;-6.32;55.99;99602.11;259431;1105;115079;-64
2021/01/17 21:16:25;;;;;;;91.03;37.57;;;;;;;-6.30;56.76;99601.29;259655;1105;115781;-64
2021/01/17 21:21:28;;;;;;;105.07;40.95;;;;;;;-6.31;56.22;99591.80;259608;1105;114906;-65
2021/01/17 21:26:33;;;;;;;105.58;40.60;;;;;;;-6.31;57.10;99598.70;259408;1105;115105;-65
2021/01/17 21:31:36;;;;;;;105.07;41.42;;;;;;;-6.38;55.98;99602.91;259472;1105;115408;-64
2021/01/17 21:36:38;;;;;;;104.87;40.10;;;;;;;-6.34;57.00;99603.83;259391;1105;115287;-64
2021/01/17 21:41:40;;;;;;;105.53;40.70;;;;;;;-6.33;57.05;99618.50;259431;1105;115868;-65
2021/01/17 21:46:43;;;;;;;96.13;38.60;;;;;;;-6.34;56.37;99609.88;259350;1106;115390;-65
2021/01/17 21:51:45;;;;;;;91.40;37.13;;;;;;;-6.35;56.22;99600.38;259584;1105;114944;-66
2021/01/17 21:56:48;;;;;;;96.37;34.73;;;;;;;-6.36;57.13;99614.14;259622;1105;114950;-65
2021/01/17 22:01:51;;;;;;;99.10;34.60;;;;;;;-6.36;57.16;99608.96;259629;1105;115136;-65
2021/01/17 22:06:55;;;;;;;95.33;36.43;;;;;;;-6.35;56.12;99612.42;259458;1106;115236;-65
2021/01/17 22:11:57;;;;;;;93.05;35.13;;;;;;;-6.35;57.26;99627.95;259469;1105;114952;-67
2021/01/17 22:16:59;;;;;;;87.57;34.10;;;;;;;-6.37;56.98;99625.36;259335;1105;115032;-68
2021/01/17 22:22:02;;;;;;;105.20;37.98;;;;;;;-6.42;55.79;99619.22;259598;1105;114954;-65
2021/01/17 22:27:04;;;;;;;100.60;37.20;;;;;;;-6.42;56.16;99606.27;259468;1105;115258;-65
2021/01/17 22:32:07;;;;;;;97.82;37.00;;;;;;;-6.44;56.06;99605.41;259453;1105;115991;-66
2021/01/17 22:37:09;;;;;;;91.40;36.40;;;;;;;-6.43;56.39;99602.82;259598;1106;114815;-66
2021/01/17 22:42:12;;;;;;;87.10;35.50;;;;;;;-6.39;56.87;99592.52;259643;1105;115225;-66
2021/01/17 22:47:17;;;;;;;90.55;35.83;;;;;;;-6.41;56.77;99602.86;259569;1105;116014;-66
2021/01/17 22:52:20;;;;;;;98.45;38.02;;;;;;;-6.36;57.20;99608.09;259555;1105;115158;-65
2021/01/17 22:57:22;;;;;;;94.60;39.13;;;;;;;-6.33;56.79;99605.55;259664;1105;115006;-66
2021/01/17 23:02:25;;;;;;;108.63;39.90;;;;;;;-6.33;57.04;99600.38;259565;1105;114964;-66
2021/01/17 23:07:31;;;;;;;111.50;40.53;;;;;;;-6.29;56.66;99610.79;259454;1105;115893;-64
2021/01/17 23:12:33;;;;;;;118.47;43.63;;;;;;;-6.33;56.99;99613.33;259697;1105;115584;-64
2021/01/17 23:17:36;;;;;;;106.00;40.33;;;;;;;-6.33;56.92;99610.73;259540;1106;115370;-64
2021/01/17 23:22:38;;;;;;;117.10;42.13;;;;;;;-6.41;56.81;99602.00;259652;1105;115304;-64
2021/01/17 23:27:41;;;;;;;97.80;37.08;;;;;;;-6.47;56.82;99595.00;259451;1105;115400;-65